Maldegem, Belgium
Current Conditions -  °F | °C
As of 7:55 AM on Wednesday 22 Oct 2014 (Local Time) from EHFS Reporting Station
Scattered Clouds Scattered Clouds  
Wind Chill: 52°   Ceiling: Unl
Heat Index: 52°   Visibility: 6mi
Dew Point: 39°   Wind: 23mph
Humidity: 62%   Direction: 300°WNW
Pressure: 30.06"   Gusts: NA
Location:  51.21°N, 3.45°E
Report Text: EHFS 220555Z AUTO 30020KT 260V330 9999 FEW029/// SCT035///11/04 Q1018
Loading
Personal Weather Stations






























Interactive Weather Map
Tropical Storm Tracking
New forecast layout! Learn more

10-Day Weather Forecast

Advertisements
Track Severe Weather on mobile